Aérodrome :







RETROUVEZ-NOUS SUR...

 
LOGIN :

S'inscrire | Disclaimer

   EN    FR    IT 

 









Légende :    VFR   VFR Marginal   IFR   IFR Intensif   IFR Très Intensif
Visi : 
Plafond : 
>= 8 km
>= 3000ft
5 à 8 km
1000 à 3000 ft
1500m à 5 km
500 à 1000 ft
800 à 1500m
200 à 500 ft
< 800m
< 200 ft
Symboles :   Orages  Brouillard  Fortes neiges  Fortes précipitations  Vent > 20 kt






- Altitude de l'aérodrome : 199 ft
- Code IATA : YRQ


CYRQ - Trois-Rivières

DERNIER METAR :
  • 072100Z AUTO 24006KT 9SM OVC047 M06/M13 A3032 RMK SLP274

METARs EXPIRÉS :
  • 072000Z AUTO 22005KT 9SM FEW043 M07/M12 A3030 RMK SLP268
  • 071900Z AUTO 21006KT 9SM SCT085 M06/M12 A3029 RMK SLP264

TAF TAF CYRQ
Valide du 07 à 20h jusqu'au 08 à 08h UTC


071939Z 0720/0808 22008KT P6SM SCT025 BKN050
TEMPO 0720/0723 5SM -SN BKN020 BKN050
FM072300 25008KT P6SM SCT040 RMK FCST BASED ON AUTO OBS. NXT FCST BY 080200Z



MET'MAP, la Météo Aéronautique d'un coup d'oeil ! - Copyright ORBIFLY Décembre 2007 - Disclaimer

ORBIFLY MET'MAP TEAM :

Programmation & Développement : Alexandra Zaïnal
Sur une idée originale de : Baudouin d'Aumeries
Assistance à la programmation : Marc-Olivier Méhu
Soutien technique & logistique : Manuel Goepfert

Contact : metmap@orbifly.com




SOURCES & CREDITS :

   NOAA